createdAt,value
2019-03-13T00:01:19.249Z,98872.24
2019-03-13T00:03:50.489Z,98869.54
2019-03-13T00:06:21.602Z,98858.06
2019-03-13T00:08:52.453Z,98847.47
2019-03-13T00:11:23.183Z,98848.58
2019-03-13T00:13:54.455Z,98842.42
2019-03-13T00:16:25.388Z,98841.03
2019-03-13T00:18:57.640Z,98849.68
2019-03-13T00:21:28.562Z,98842.92
2019-03-13T00:23:59.363Z,98852.35
2019-03-13T00:26:30.555Z,98849.87
2019-03-13T00:29:01.747Z,98848.31
2019-03-13T00:31:32.692Z,98847.08
2019-03-13T00:34:03.575Z,98848.97
2019-03-13T00:36:34.566Z,98838.59
2019-03-13T00:39:06.958Z,98830.38
2019-03-13T00:41:39.793Z,98824.29
2019-03-13T00:44:12.090Z,98835.46
2019-03-13T00:46:42.782Z,98826.78
2019-03-13T00:49:15.051Z,98835.41
2019-03-13T00:51:46.381Z,98832.27
2019-03-13T00:54:17.550Z,98826.06
2019-03-13T00:56:49.789Z,98827.30
2019-03-13T00:59:24.624Z,98818.50
2019-03-13T01:02:03.287Z,98815.30
2019-03-13T01:04:48.003Z,98823.00
2019-03-13T01:07:30.355Z,98823.84
2019-03-13T01:10:39.372Z,98825.10
2019-03-13T01:12:47.159Z,98821.63
2019-03-13T01:15:19.635Z,98831.54
2019-03-13T01:17:55.238Z,98819.54
2019-03-13T01:20:25.642Z,98826.02
2019-03-13T01:22:58.505Z,98829.14
2019-03-13T01:25:32.384Z,98827.80
2019-03-13T01:28:08.893Z,98838.75
2019-03-13T01:30:51.095Z,98836.36
2019-03-13T01:33:27.859Z,98826.57
2019-03-13T01:36:08.779Z,98819.34
2019-03-13T01:38:50.022Z,98832.23
2019-03-13T01:41:23.594Z,98839.12
2019-03-13T01:44:01.408Z,98841.82
2019-03-13T01:46:34.383Z,98840.98
2019-03-13T01:49:05.370Z,98847.86
2019-03-13T01:51:42.434Z,98860.14
2019-03-13T01:54:19.950Z,98842.00
2019-03-13T01:57:00.658Z,98844.18
2019-03-13T01:59:40.564Z,98843.37
2019-03-13T02:02:16.843Z,98839.44
2019-03-13T02:04:49.449Z,98848.59
2019-03-13T02:07:31.034Z,98840.40
2019-03-13T02:10:11.753Z,98857.10
2019-03-13T02:12:56.210Z,98865.01
2019-03-13T02:15:29.225Z,98870.66
2019-03-13T02:18:01.650Z,98859.59
2019-03-13T02:20:47.794Z,98877.07
2019-03-13T02:23:26.211Z,98882.30
2019-03-13T02:26:03.723Z,98877.34
2019-03-13T02:28:48.293Z,98881.09
2019-03-13T02:31:20.082Z,98890.49
2019-03-13T02:34:06.923Z,98892.78
2019-03-13T02:36:55.207Z,98903.28
2019-03-13T02:39:34.438Z,98908.38
2019-03-13T02:42:05.215Z,98915.09
2019-03-13T02:44:36.369Z,98902.96
2019-03-13T02:47:10.702Z,98924.63
2019-03-13T02:49:48.982Z,98943.27
2019-03-13T02:52:23.047Z,98949.02
2019-03-13T02:54:56.585Z,98947.20
2019-03-13T03:01:07.937Z,98969.17
2019-03-13T03:03:55.049Z,98992.83
2019-03-13T03:06:38.376Z,98995.80
2019-03-13T03:09:30.316Z,99011.53
2019-03-13T03:11:44.472Z,99024.45
2019-03-13T03:14:19.695Z,99040.16
2019-03-13T03:16:58.972Z,99046.14
2019-03-13T03:19:32.277Z,99057.78
2019-03-13T03:22:15.645Z,99063.23
2019-03-13T03:24:50.626Z,99063.69
2019-03-13T03:27:27.122Z,99070.94
2019-03-13T03:30:04.842Z,99084.80
2019-03-13T03:32:46.906Z,99090.95
2019-03-13T03:35:22.289Z,99093.72
2019-03-13T03:38:00.989Z,99111.63
2019-03-13T03:40:37.269Z,99113.45
2019-03-13T03:43:17.589Z,99127.26
2019-03-13T03:46:03.544Z,99128.18
2019-03-13T03:48:34.546Z,99137.33
2019-03-13T03:51:05.420Z,99129.70
2019-03-13T03:53:53.712Z,99153.01
2019-03-13T03:56:43.764Z,99166.52
2019-03-13T03:59:32.291Z,99171.73
2019-03-13T04:02:03.179Z,99180.02
2019-03-13T04:04:43.813Z,99198.16
2019-03-13T04:07:20.548Z,99200.89
2019-03-13T04:09:57.280Z,99207.39
2019-03-13T04:12:32.601Z,99207.11
2019-03-13T04:15:17.792Z,99214.37
2019-03-13T04:17:55.057Z,99223.84
2019-03-13T04:20:35.520Z,99227.41
2019-03-13T04:23:11.770Z,99224.22
2019-03-13T04:25:48.917Z,99229.16
2019-03-13T04:28:25.866Z,99234.55
2019-03-13T04:31:07.615Z,99239.83
2019-03-13T04:33:44.290Z,99238.05
2019-03-13T04:36:23.104Z,99240.50
2019-03-13T04:38:55.167Z,99248.40
2019-03-13T04:41:39.132Z,99253.05
2019-03-13T04:44:10.147Z,99252.37
2019-03-13T04:46:42.840Z,99249.39
2019-03-13T04:49:15.601Z,99251.69
2019-03-13T04:51:47.593Z,99240.30
2019-03-13T04:54:21.624Z,99239.24
2019-03-13T04:56:52.620Z,99234.91
2019-03-13T04:59:28.590Z,99245.68
2019-03-13T05:01:59.354Z,99245.67
2019-03-13T05:04:30.359Z,99241.24
2019-03-13T05:07:01.104Z,99247.98
2019-03-13T05:09:40.640Z,99241.96
2019-03-13T05:12:11.374Z,99241.80
2019-03-13T05:14:42.098Z,99240.25
2019-03-13T05:17:15.261Z,99248.70
2019-03-13T05:19:48.085Z,99240.23
2019-03-13T05:22:18.673Z,99250.70
2019-03-13T05:24:49.439Z,99251.59
2019-03-13T05:27:20.422Z,99248.66
2019-03-13T05:29:53.042Z,99248.67
2019-03-13T05:32:24.261Z,99243.30
2019-03-13T05:34:55.323Z,99250.66
2019-03-13T05:37:28.576Z,99263.78
2019-03-13T05:39:59.685Z,99262.35
2019-03-13T05:42:30.661Z,99272.33
2019-03-13T05:45:08.409Z,99282.36
2019-03-13T05:47:35.769Z,99282.16
2019-03-13T05:50:06.674Z,99280.58
2019-03-13T05:52:40.244Z,99279.70
2019-03-13T05:55:11.079Z,99289.98
2019-03-13T05:57:42.268Z,99282.72
2019-03-13T06:00:21.260Z,99273.72
2019-03-13T06:02:47.935Z,99277.48
2019-03-13T06:05:21.468Z,99281.78
2019-03-13T06:07:54.507Z,99293.16
2019-03-13T06:10:57.350Z,99303.09
2019-03-13T06:13:37.717Z,99310.34
2019-03-13T06:16:14.118Z,99298.88
2019-03-13T06:18:44.852Z,99301.91
2019-03-13T06:21:15.756Z,99303.78
2019-03-13T06:23:47.963Z,99307.47
2019-03-13T06:26:21.518Z,99308.11
2019-03-13T06:28:52.290Z,99317.25
2019-03-13T06:31:24.700Z,99319.57
2019-03-13T06:33:55.533Z,99319.57
2019-03-13T06:36:27.135Z,99321.08
2019-03-13T06:38:57.865Z,99326.78
2019-03-13T06:41:28.909Z,99329.19
2019-03-13T06:44:01.576Z,99328.61
2019-03-13T06:46:32.376Z,99334.22
2019-03-13T06:49:03.106Z,99330.00
2019-03-13T06:51:35.925Z,99331.79
2019-03-13T06:54:06.772Z,99339.79
2019-03-13T06:56:51.815Z,99336.92
2019-03-13T06:59:27.578Z,99321.98
2019-03-13T07:02:05.193Z,99327.21
2019-03-13T07:04:54.784Z,99316.67
2019-03-13T07:07:56.528Z,99325.95
2019-03-13T07:10:37.056Z,99320.97
2019-03-13T07:13:25.857Z,99326.09
2019-03-13T07:16:06.667Z,99323.95
2019-03-13T07:19:02.879Z,99320.57
2019-03-13T07:21:48.682Z,99324.67
2019-03-13T07:24:28.731Z,99325.47
2019-03-13T07:27:25.053Z,99294.08
2019-03-13T07:30:24.848Z,99320.91
2019-03-13T07:33:07.266Z,99325.76
2019-03-13T07:36:12.925Z,99312.58
2019-03-13T07:39:20.728Z,99319.59
2019-03-13T07:42:16.352Z,99319.88
2019-03-13T07:45:06.088Z,99321.01
2019-03-13T07:47:57.972Z,99337.80
2019-03-13T07:50:48.291Z,99344.19
2019-03-13T07:53:35.705Z,99328.32
2019-03-13T07:56:32.670Z,99336.80
2019-03-13T07:59:16.589Z,99334.09
2019-03-13T08:02:11.045Z,99335.41
2019-03-13T08:04:59.810Z,99329.08
2019-03-13T08:07:56.830Z,99325.41
2019-03-13T08:10:41.573Z,99342.36
2019-03-13T08:13:40.346Z,99343.93
2019-03-13T08:16:23.229Z,99340.75
2019-03-13T08:19:05.717Z,99339.92
2019-03-13T08:21:56.312Z,99338.82
2019-03-13T08:25:01.634Z,99346.55
2019-03-13T08:28:00.188Z,99349.24
2019-03-13T08:30:48.613Z,99353.98
2019-03-13T08:33:49.952Z,99350.47
2019-03-13T08:36:45.805Z,99345.59
2019-03-13T08:39:43.137Z,99333.49
2019-03-13T08:42:45.319Z,99325.80
2019-03-13T08:45:35.260Z,99328.41
2019-03-13T08:48:16.018Z,99316.92
2019-03-13T08:52:01.997Z,99323.77
2019-03-13T08:54:59.003Z,99325.33
2019-03-13T08:57:43.920Z,99322.55
2019-03-13T09:00:45.992Z,99341.81
2019-03-13T09:03:41.593Z,99326.09
2019-03-13T09:06:51.516Z,99313.70
2019-03-13T09:09:35.058Z,99313.53
2019-03-13T09:12:17.564Z,99306.74
2019-03-13T09:14:57.314Z,99301.45
2019-03-13T09:17:48.553Z,99305.50
2019-03-13T09:20:29.122Z,99309.81
2019-03-13T09:23:21.878Z,99328.39
2019-03-13T09:26:16.377Z,99324.06
2019-03-13T09:29:05.977Z,99336.98
2019-03-13T09:31:55.306Z,99325.57
2019-03-13T09:34:42.656Z,99332.79
2019-03-13T09:37:36.226Z,99314.82
2019-03-13T09:40:27.925Z,99315.72
2019-03-13T09:43:06.559Z,99309.70
2019-03-13T09:45:56.258Z,99301.95
2019-03-13T09:48:47.546Z,99312.80
2019-03-13T09:51:23.569Z,99309.28
2019-03-13T09:54:19.047Z,99299.22
2019-03-13T09:57:11.546Z,99313.84
2019-03-13T09:59:51.941Z,99301.09
2019-03-13T10:02:54.246Z,99305.13
2019-03-13T10:05:43.653Z,99283.23
2019-03-13T10:08:50.029Z,99286.45
2019-03-13T10:11:45.448Z,99279.33
2019-03-13T10:14:34.972Z,99287.51
2019-03-13T10:17:31.853Z,99269.37
2019-03-13T10:20:33.931Z,99262.05
2019-03-13T10:23:30.212Z,99261.16
2019-03-13T10:26:27.606Z,99248.93
2019-03-13T10:29:19.348Z,99249.58
2019-03-13T10:32:25.850Z,99247.43
2019-03-13T10:35:22.583Z,99240.84
2019-03-13T10:38:29.398Z,99242.36
2019-03-13T10:41:34.475Z,99242.88
2019-03-13T10:44:33.436Z,99248.45
2019-03-13T10:47:30.380Z,99247.77
2019-03-13T10:50:27.405Z,99230.20
2019-03-13T10:53:24.626Z,99214.33
2019-03-13T10:56:25.798Z,99198.76
2019-03-13T10:59:42.420Z,99195.86
2019-03-13T11:02:22.997Z,99191.64
2019-03-13T11:05:21.875Z,99174.62
2019-03-13T11:08:31.625Z,99157.92
2019-03-13T11:11:48.934Z,99161.93
2019-03-13T11:15:12.879Z,99166.45
2019-03-13T11:18:13.385Z,99145.95
2019-03-13T11:21:27.825Z,99145.75
2019-03-13T11:24:17.804Z,99118.84
2019-03-13T11:27:18.149Z,99123.66
2019-03-13T11:30:12.842Z,99123.25
2019-03-13T11:33:04.526Z,99107.08
2019-03-13T11:36:07.744Z,99078.80
2019-03-13T11:39:02.802Z,99089.66
2019-03-13T11:41:59.806Z,99110.63
2019-03-13T11:45:10.077Z,99135.70
2019-03-13T11:48:29.675Z,99117.80
2019-03-13T11:51:54.489Z,99117.28
2019-03-13T11:55:01.442Z,99096.63
2019-03-13T11:58:22.597Z,99125.05
2019-03-13T12:01:45.588Z,99117.30
2019-03-13T12:04:28.219Z,99127.34
2019-03-13T12:07:29.026Z,99127.18
2019-03-13T12:10:22.960Z,99126.73
2019-03-13T12:13:23.346Z,99125.30
2019-03-13T12:16:11.574Z,99119.36
2019-03-13T12:19:23.513Z,99121.92
2019-03-13T12:22:44.087Z,99123.80
2019-03-13T12:25:39.291Z,99125.08
2019-03-13T12:28:34.174Z,99113.27
2019-03-13T12:31:37.534Z,99115.49
2019-03-13T12:34:32.804Z,99126.09
2019-03-13T12:37:58.671Z,99127.05
2019-03-13T12:41:11.989Z,99136.12
2019-03-13T12:44:26.939Z,99140.17
2019-03-13T12:47:21.722Z,99132.16
2019-03-13T12:50:15.370Z,99124.01
2019-03-13T12:53:10.764Z,99123.47
2019-03-13T12:56:20.675Z,99116.66
2019-03-13T12:59:10.831Z,99119.23
2019-03-13T13:02:04.263Z,99117.64
2019-03-13T13:05:16.372Z,99118.45
2019-03-13T13:08:22.221Z,99109.52
2019-03-13T13:11:06.802Z,99101.01
2019-03-13T13:14:33.527Z,99091.34
2019-03-13T13:17:59.069Z,99098.71
2019-03-13T13:20:19.173Z,99087.15
2019-03-13T13:22:54.177Z,99089.77
2019-03-13T13:25:37.022Z,99093.08
2019-03-13T13:28:18.152Z,99094.31
2019-03-13T13:30:54.987Z,99088.73
2019-03-13T13:33:31.990Z,99091.05
2019-03-13T13:36:08.728Z,99084.63
2019-03-13T13:38:44.009Z,99092.05
2019-03-13T13:41:23.183Z,99085.27
2019-03-13T13:44:16.400Z,99086.92
2019-03-13T13:46:47.563Z,99088.26
2019-03-13T13:49:19.560Z,99080.68
2019-03-13T13:51:50.834Z,99089.05
2019-03-13T13:54:39.690Z,99081.80
2019-03-13T13:57:28.985Z,99078.95
2019-03-13T14:00:57.253Z,99075.47
2019-03-13T14:03:10.755Z,99073.86
2019-03-13T14:05:51.737Z,99074.38
2019-03-13T14:08:31.917Z,99073.61
2019-03-13T14:11:07.459Z,99078.22
2019-03-13T14:13:42.398Z,99072.47
2019-03-13T14:16:16.014Z,99075.27
2019-03-13T14:18:52.211Z,99076.47
2019-03-13T14:21:28.110Z,99072.17
2019-03-13T14:23:59.022Z,99085.27
2019-03-13T14:26:41.481Z,99074.53
2019-03-13T14:29:24.933Z,99070.60
2019-03-13T14:32:07.532Z,99072.97
2019-03-13T14:34:43.746Z,99077.05
2019-03-13T14:37:48.302Z,99083.82
2019-03-13T14:40:37.110Z,99079.92
2019-03-13T14:43:19.032Z,99074.77
2019-03-13T14:45:50.388Z,99068.81
2019-03-13T14:49:05.113Z,99083.97
2019-03-13T14:51:56.667Z,99073.03
2019-03-13T14:54:56.283Z,99058.08
2019-03-13T14:57:22.064Z,99059.83
2019-03-13T15:00:19.151Z,99055.59
2019-03-13T15:03:13.865Z,99060.37
2019-03-13T15:06:09.404Z,99053.20
2019-03-13T15:09:11.923Z,99059.16
2019-03-13T15:11:56.249Z,99061.95
2019-03-13T15:14:32.541Z,99068.02
2019-03-13T15:17:22.736Z,99066.63
2019-03-13T15:23:01.341Z,99066.23
2019-03-13T15:26:12.070Z,99066.86
2019-03-13T15:29:13.658Z,99060.72
2019-03-13T15:32:59.010Z,99062.91
2019-03-13T15:35:02.921Z,99061.89
2019-03-13T15:38:14.055Z,99050.51
2019-03-13T15:41:00.294Z,99045.25
2019-03-13T15:43:40.456Z,99053.22
2019-03-13T15:46:13.330Z,99051.20
2019-03-13T15:48:54.616Z,99034.67
2019-03-13T15:51:40.633Z,99042.16
2019-03-13T15:54:19.510Z,99035.86
2019-03-13T16:00:31.199Z,99027.72
2019-03-13T16:03:24.608Z,99023.84
2019-03-13T16:06:23.309Z,99036.67
2019-03-13T16:09:28.675Z,99029.50
2019-03-13T16:12:15.102Z,99017.16
2019-03-13T16:14:55.437Z,99021.11
2019-03-13T16:17:36.917Z,99017.13
2019-03-13T16:20:21.381Z,99008.64
2019-03-13T16:23:31.343Z,99008.38
2019-03-13T16:29:45.982Z,99003.94
2019-03-13T16:32:50.538Z,99002.82
2019-03-13T16:35:05.524Z,99004.33
2019-03-13T16:35:28.537Z,98995.52
2019-03-13T16:38:22.194Z,98993.53
2019-03-13T16:40:53.072Z,98991.49
2019-03-13T16:43:43.995Z,98988.70
2019-03-13T16:46:37.029Z,98988.47
2019-03-13T16:49:21.929Z,98979.47
2019-03-13T16:51:51.530Z,98980.45
2019-03-13T16:54:24.589Z,98977.36
2019-03-13T16:58:04.329Z,98978.94
2019-03-13T16:59:59.668Z,98980.30
2019-03-13T17:02:44.689Z,98988.46
2019-03-13T17:05:19.921Z,98988.81
2019-03-13T17:08:01.561Z,98994.45
2019-03-13T17:10:51.955Z,99009.73
2019-03-13T17:13:33.827Z,99008.09
2019-03-13T17:16:15.360Z,99001.35
2019-03-13T17:18:59.482Z,98994.92
2019-03-13T17:21:56.668Z,98994.84
2019-03-13T17:24:47.439Z,99000.97
2019-03-13T17:27:26.364Z,98999.66
2019-03-13T17:30:16.886Z,98998.14
2019-03-13T17:32:59.527Z,98999.90
2019-03-13T17:35:48.585Z,98989.48
2019-03-13T17:38:36.740Z,98989.16
2019-03-13T17:41:16.087Z,98987.27
2019-03-13T17:43:50.048Z,98986.82
2019-03-13T17:46:27.314Z,98977.08
2019-03-13T17:48:58.819Z,98981.95
2019-03-13T17:51:34.413Z,98973.00
2019-03-13T17:54:56.518Z,98980.31
2019-03-13T17:56:45.487Z,98969.30
2019-03-13T17:59:32.552Z,98965.42
2019-03-13T18:02:12.174Z,98973.74
2019-03-13T18:04:47.891Z,98973.53
2019-03-13T18:07:16.245Z,98973.85
2019-03-13T18:09:50.393Z,98970.65
2019-03-13T18:12:22.880Z,98971.20
2019-03-13T18:14:53.910Z,98978.70
2019-03-13T18:17:38.943Z,98971.94
2019-03-13T18:20:15.016Z,98982.23
2019-03-13T18:26:55.431Z,98969.48
2019-03-13T18:29:55.125Z,98973.53
2019-03-13T18:33:00.814Z,98985.81
2019-03-13T18:36:15.865Z,98984.03
2019-03-13T18:38:57.730Z,98980.88
2019-03-13T18:41:57.178Z,98996.40
2019-03-13T18:44:37.928Z,98983.73
2019-03-13T18:47:17.098Z,98975.89
2019-03-13T18:49:58.620Z,98983.69
2019-03-13T18:52:38.467Z,98991.62
2019-03-13T18:55:19.770Z,99000.94
2019-03-13T18:57:56.977Z,98992.77
2019-03-13T19:00:40.703Z,99005.45
2019-03-13T19:03:41.089Z,98997.41
2019-03-13T19:06:49.637Z,99006.17
2019-03-13T19:09:29.397Z,98991.06
2019-03-13T19:12:17.316Z,98980.45
2019-03-13T19:14:52.466Z,98975.98
2019-03-13T19:18:16.925Z,98985.06
2019-03-13T19:20:53.856Z,98984.45
2019-03-13T19:23:43.679Z,98986.27
2019-03-13T19:26:28.908Z,98991.28
2019-03-13T19:29:19.232Z,99005.63
2019-03-13T19:31:56.410Z,99010.94
2019-03-13T19:34:46.283Z,98996.26
2019-03-13T19:37:44.678Z,98995.52
2019-03-13T19:40:10.701Z,98988.05
2019-03-13T19:42:54.446Z,98981.89
2019-03-13T19:45:41.341Z,98978.76
2019-03-13T19:48:24.863Z,98976.36
2019-03-13T19:51:21.120Z,98982.30
2019-03-13T19:53:59.224Z,98980.02
2019-03-13T19:56:45.294Z,98977.79
2019-03-13T19:59:20.355Z,98982.72
2019-03-13T20:01:53.127Z,98994.29
2019-03-13T20:04:30.618Z,98992.84
2019-03-13T20:07:05.567Z,99008.64
2019-03-13T20:09:42.457Z,99000.30
2019-03-13T20:12:33.786Z,98990.28
2019-03-13T20:15:12.718Z,98999.11
2019-03-13T20:17:51.201Z,98990.53
2019-03-13T20:20:32.485Z,99000.85
2019-03-13T20:23:06.227Z,99005.03
2019-03-13T20:25:40.612Z,99003.68
2019-03-13T20:28:11.550Z,99002.41
2019-03-13T20:30:42.881Z,99008.16
2019-03-13T20:33:13.913Z,98999.47
2019-03-13T20:36:05.375Z,99007.86
2019-03-13T20:38:38.450Z,99000.69
2019-03-13T20:41:04.967Z,99008.34
2019-03-13T20:43:41.030Z,99002.83
2019-03-13T20:46:15.956Z,98995.64
2019-03-13T20:48:51.114Z,98998.14
2019-03-13T20:51:31.662Z,99004.34
2019-03-13T20:54:07.943Z,99004.36
2019-03-13T20:56:52.797Z,99008.78
2019-03-13T20:59:32.876Z,99007.07
2019-03-13T21:02:25.500Z,98998.86
2019-03-13T21:05:38.753Z,98993.78
2019-03-13T21:07:59.593Z,98998.41
2019-03-13T21:10:46.400Z,99009.63
2019-03-13T21:13:23.757Z,99009.95
2019-03-13T21:16:18.866Z,98999.78
2019-03-13T21:18:50.723Z,98999.48
2019-03-13T21:21:25.221Z,99011.79
2019-03-13T21:23:58.917Z,99004.05
2019-03-13T21:26:37.661Z,99012.75
2019-03-13T21:29:11.847Z,99010.97
2019-03-13T21:31:43.171Z,99012.13
2019-03-13T21:34:17.996Z,99006.81
2019-03-13T21:36:54.299Z,99012.91
2019-03-13T21:39:28.429Z,99002.69
2019-03-13T21:42:00.246Z,99006.04
2019-03-13T21:44:31.037Z,99009.72
2019-03-13T21:47:01.828Z,99019.06
2019-03-13T21:49:32.683Z,99013.41
2019-03-13T21:52:05.654Z,99014.30
2019-03-13T21:54:46.439Z,99011.53
2019-03-13T21:57:39.782Z,99016.72
2019-03-13T22:00:19.246Z,99008.59
2019-03-13T22:02:57.780Z,98998.77
2019-03-13T22:08:42.362Z,99008.70
2019-03-13T22:11:22.889Z,99019.86
2019-03-13T22:14:05.372Z,99020.75
2019-03-13T22:16:40.899Z,99014.23
2019-03-13T22:19:15.172Z,99017.52
2019-03-13T22:22:07.373Z,99028.80
2019-03-13T22:25:08.184Z,99031.91
2019-03-13T22:27:56.250Z,99041.97
2019-03-13T22:30:47.995Z,99033.21
2019-03-13T22:33:05.395Z,99036.91
2019-03-13T22:35:51.983Z,99042.73
2019-03-13T22:38:35.693Z,99040.03
2019-03-13T22:41:14.841Z,99045.69
2019-03-13T22:43:50.849Z,99026.48
2019-03-13T22:46:50.141Z,99030.70
2019-03-13T22:49:25.382Z,99039.16
2019-03-13T22:52:23.437Z,99030.67
2019-03-13T22:54:58.369Z,99036.62
2019-03-13T22:58:51.758Z,99034.22
2019-03-13T23:01:43.026Z,99044.81
2019-03-13T23:04:21.166Z,99056.19
2019-03-13T23:07:12.107Z,99050.66
2019-03-13T23:09:53.977Z,99052.78
2019-03-13T23:13:07.385Z,99054.11
2019-03-13T23:15:55.191Z,99040.92
2019-03-13T23:18:54.099Z,99041.15
2019-03-13T23:21:44.913Z,99036.70
2019-03-13T23:24:28.054Z,99045.25
2019-03-13T23:27:28.486Z,99040.17
2019-03-13T23:30:08.860Z,99047.70
2019-03-13T23:32:56.985Z,99041.56
2019-03-13T23:35:42.135Z,99039.27
2019-03-13T23:38:31.092Z,99044.78
2019-03-13T23:41:23.647Z,99045.36
2019-03-13T23:44:15.052Z,99066.25
2019-03-13T23:47:11.278Z,99067.74
2019-03-13T23:49:55.400Z,99056.32
2019-03-13T23:55:25.811Z,99067.71
2019-03-13T23:58:18.255Z,99074.77
